Pell Lake, WI (53157)

8:46 AM CDT on May 04, 2015 (GMT -0500)
Pell Lake | | Change Station
CLOSE
Current Station
Personal Weather Station
Location: Genoa City, WI
Elevation: 883 ft
Nearby Weather Stations

Elev 883 ft 42.54 °N, 88.35 °W | Updated 12 minutes ago

Partly Cloudy
Partly Cloudy
60.8 °F
Feels Like 60.8 °F
N
0.0
Wind Variable Wind from SSW

Today
High -- | Low -- °F
--% Chance of Precip.
Yesterday
High -- | Low -- °F
Precip. -- in
5:44 AM 7:56 PM
Full, 100% visible
Pressure 30.04 in
Visibility 10.0 miles
Clouds Clear
Dew Point 59 °F
Humidity 94%
Rainfall 0.00 in
Snow Depth Not available.
UV 3 out of 12
Pollen 1.90 out of 12
Air Quality Not available.
Flu Activity Local Activity
METAR KBUU 041335Z AUTO 00000KT 10SM CLR 15/13 A3004 RMK AO2 T01470133

More Conditions Fewer Conditions

Pressure 30.04 in
Visibility 10.0 miles
Clouds Clear
Dew Point 59 °F
Humidity 94%
Rainfall 0.00 in
Snow Depth Not available.
UV 3 out of 12
Pollen 1.90 out of 12
Air Quality Not available.
Flu Activity Local Activity
METAR KBUU 041335Z AUTO 00000KT 10SM CLR 15/13 A3004 RMK AO2 T01470133

More Conditions Fewer Conditions

Nepal has a long way to go to dig out and rebuild from a devastating earthquake. We have teamed up with several charities and organizations to make contributing to the relief effort as easy as possible.
How you can help: Portlight Strategies | Red Cross

10-Day Weather Forecast

Almanac

Astronomy

May. 04, 2015 Rise Set
Actual Time
Civil Twilight
Nautical Twilight
Astronomical Twilight
Moon
Length of Visible Light
Length of Day
Tomorrow will be .
, % of the Moon is Illuminated

Today's Extremes

State Highs State Lows

Community

WunderPhotos

Upload Photos

1,818,611 photos uploaded!

WunderBlogs® & News

Nearby

Air Quality

  Air Quality AQ Index Pollutant
Not available.

Snow Depth

Station Depth Elevation

Earthquake Activity

City Distance Mag. Time & Date
Minimum magnitude displayed is 2.5.

Coastal Water Temperatures

Place Temperature

Stations

Nearby Weather Stations

Station Location Temp. Windchill Dew Point Humidity Wind Precip. Elev Updated Type